createdAt,value
2019-06-15T00:00:26.764Z,90.10
2019-06-15T00:02:54.398Z,89.90
2019-06-15T00:05:22.226Z,90.10
2019-06-15T00:07:49.931Z,90.10
2019-06-15T00:10:17.468Z,89.90
2019-06-15T00:12:45.009Z,89.70
2019-06-15T00:15:12.693Z,89.90
2019-06-15T00:17:40.303Z,89.70
2019-06-15T00:20:08.260Z,89.70
2019-06-15T00:22:35.719Z,89.90
2019-06-15T00:25:03.577Z,90.10
2019-06-15T00:27:31.145Z,90.40
2019-06-15T00:29:58.622Z,90.20
2019-06-15T00:32:26.153Z,90.40
2019-06-15T00:34:53.822Z,90.70
2019-06-15T00:37:21.374Z,90.60
2019-06-15T00:39:48.855Z,90.70
2019-06-15T00:42:16.378Z,90.90
2019-06-15T00:44:43.862Z,91.00
2019-06-15T00:47:11.610Z,91.20
2019-06-15T00:49:39.319Z,91.30
2019-06-15T00:52:06.789Z,91.60
2019-06-15T00:54:49.503Z,91.70
2019-06-15T00:57:05.801Z,91.60
2019-06-15T00:59:33.238Z,91.70
2019-06-15T01:02:00.719Z,91.40
2019-06-15T01:04:28.317Z,91.50
2019-06-15T01:06:55.813Z,91.30
2019-06-15T01:09:23.298Z,91.20
2019-06-15T01:11:50.822Z,91.40
2019-06-15T01:14:18.273Z,91.40
2019-06-15T01:16:48.509Z,91.20
2019-06-15T01:19:15.988Z,91.00
2019-06-15T01:21:43.513Z,90.80
2019-06-15T01:24:10.967Z,90.50
2019-06-15T01:26:38.430Z,90.50
2019-06-15T01:29:06.007Z,90.80
2019-06-15T01:31:33.744Z,91.20
2019-06-15T01:34:01.556Z,91.00
2019-06-15T01:36:29.047Z,91.00
2019-06-15T01:38:56.518Z,91.10
2019-06-15T01:41:24.029Z,91.30
2019-06-15T01:43:51.726Z,91.40
2019-06-15T01:46:19.231Z,91.50
2019-06-15T01:48:46.675Z,91.70
2019-06-15T01:51:14.134Z,91.60
2019-06-15T01:53:41.593Z,91.80
2019-06-15T01:56:09.048Z,91.60
2019-06-15T01:58:37.619Z,91.80
2019-06-15T02:01:05.192Z,91.70
2019-06-15T02:03:32.863Z,91.40
2019-06-15T02:06:00.464Z,91.40
2019-06-15T02:08:27.979Z,91.60
2019-06-15T02:10:55.459Z,91.90
2019-06-15T02:13:22.968Z,92.10
2019-06-15T02:15:50.455Z,92.30
2019-06-15T02:18:17.909Z,92.40
2019-06-15T02:20:45.551Z,92.60
2019-06-15T02:23:13.097Z,92.80
2019-06-15T02:25:40.594Z,92.60
2019-06-15T02:28:08.225Z,92.60
2019-06-15T02:30:35.703Z,92.90
2019-06-15T02:33:03.775Z,93.00
2019-06-15T02:35:31.581Z,93.20
2019-06-15T02:37:59.174Z,93.00
2019-06-15T02:40:26.838Z,93.00
2019-06-15T02:42:54.281Z,93.20
2019-06-15T02:45:22.167Z,93.30
2019-06-15T02:47:49.637Z,93.40
2019-06-15T02:50:17.818Z,93.40
2019-06-15T02:52:45.355Z,93.70
2019-06-15T02:55:13.910Z,94.00
2019-06-15T02:57:41.769Z,94.40
2019-06-15T03:00:10.865Z,94.30
2019-06-15T03:02:38.506Z,94.50
2019-06-15T03:05:06.687Z,94.30
2019-06-15T03:07:34.382Z,94.20
2019-06-15T03:10:01.971Z,94.00
2019-06-15T03:12:30.101Z,94.00
2019-06-15T03:14:57.728Z,93.90
2019-06-15T03:17:25.232Z,93.70
2019-06-15T03:19:52.690Z,93.70
2019-06-15T03:22:20.283Z,93.90
2019-06-15T03:24:47.750Z,94.00
2019-06-15T03:27:15.589Z,94.10
2019-06-15T03:29:43.060Z,94.10
2019-06-15T03:32:10.961Z,94.60
2019-06-15T03:34:38.570Z,94.50
2019-06-15T03:37:06.059Z,94.50
2019-06-15T03:39:33.731Z,94.70
2019-06-15T03:42:01.190Z,95.00
2019-06-15T03:44:28.681Z,95.20
2019-06-15T03:46:56.162Z,95.20
2019-06-15T03:49:23.722Z,95.40
2019-06-15T03:51:51.292Z,95.60
2019-06-15T03:54:18.761Z,95.60
2019-06-15T03:56:46.320Z,95.60
2019-06-15T03:59:13.887Z,95.70
2019-06-15T04:01:47.081Z,95.50
2019-06-15T04:04:27.016Z,95.20
2019-06-15T04:06:54.546Z,95.20
2019-06-15T04:09:22.024Z,94.90
2019-06-15T04:11:49.485Z,95.00
2019-06-15T04:14:16.931Z,94.80
2019-06-15T04:16:44.442Z,94.60
2019-06-15T04:19:11.969Z,94.60
2019-06-15T04:21:39.407Z,94.80
2019-06-15T04:24:06.881Z,94.80
2019-06-15T04:26:36.241Z,94.60
2019-06-15T04:29:03.926Z,94.50
2019-06-15T04:31:32.513Z,94.30
2019-06-15T04:34:00.172Z,94.10
2019-06-15T04:36:27.659Z,94.00
2019-06-15T04:38:55.139Z,93.40
2019-06-15T04:41:22.799Z,93.00
2019-06-15T04:43:50.312Z,93.00
2019-06-15T04:46:17.861Z,92.20
2019-06-15T04:48:45.933Z,91.90
2019-06-15T04:51:13.526Z,91.70
2019-06-15T04:53:41.069Z,91.70
2019-06-15T04:56:08.514Z,91.70
2019-06-15T04:58:36.307Z,91.60
2019-06-15T05:01:04.105Z,91.40
2019-06-15T05:03:31.553Z,91.30
2019-06-15T05:05:58.994Z,91.10
2019-06-15T05:08:26.851Z,91.20
2019-06-15T05:10:59.623Z,91.40
2019-06-15T05:13:23.765Z,91.40
2019-06-15T05:15:51.236Z,91.50
2019-06-15T05:18:19.025Z,91.00
2019-06-15T05:20:46.603Z,90.70
2019-06-15T05:23:14.180Z,91.00
2019-06-15T05:25:41.677Z,90.90
2019-06-15T05:28:09.823Z,91.00
2019-06-15T05:30:37.433Z,90.60
2019-06-15T05:33:04.910Z,90.20
2019-06-15T05:35:32.441Z,90.40
2019-06-15T05:38:00.404Z,90.10
2019-06-15T05:40:27.936Z,89.70
2019-06-15T05:42:55.427Z,89.70
2019-06-15T05:45:23.190Z,89.00
2019-06-15T05:47:50.674Z,87.70
2019-06-15T05:50:18.209Z,88.10
2019-06-15T05:52:45.693Z,87.30
2019-06-15T05:55:14.960Z,85.60
2019-06-15T05:57:42.448Z,84.90
2019-06-15T06:00:10.741Z,85.30
2019-06-15T06:02:38.209Z,83.80
2019-06-15T06:05:07.197Z,83.00
2019-06-15T06:07:34.723Z,82.30
2019-06-15T06:10:02.357Z,83.80
2019-06-15T06:12:32.333Z,82.10
2019-06-15T06:14:59.776Z,82.80
2019-06-15T06:17:27.264Z,83.60
2019-06-15T06:19:54.931Z,81.70
2019-06-15T06:22:22.429Z,81.90
2019-06-15T06:24:49.911Z,81.40
2019-06-15T06:27:17.371Z,81.20
2019-06-15T06:29:44.834Z,78.40
2019-06-15T06:32:12.330Z,77.30
2019-06-15T06:34:39.743Z,78.20
2019-06-15T06:37:07.225Z,77.10
2019-06-15T06:39:34.669Z,78.60
2019-06-15T06:42:02.203Z,77.10
2019-06-15T06:44:29.744Z,77.30
2019-06-15T06:46:57.282Z,73.90
2019-06-15T06:49:24.761Z,73.90
2019-06-15T06:51:52.205Z,72.60
2019-06-15T06:54:20.789Z,72.20
2019-06-15T06:56:48.262Z,70.90
2019-06-15T06:59:15.887Z,69.20
2019-06-15T07:01:43.654Z,71.50
2019-06-15T07:04:11.143Z,70.70
2019-06-15T07:06:39.744Z,70.90
2019-06-15T07:09:07.239Z,67.60
2019-06-15T07:11:34.691Z,65.10
2019-06-15T07:14:03.023Z,65.70
2019-06-15T07:16:30.675Z,64.00
2019-06-15T07:18:58.243Z,64.20
2019-06-15T07:21:25.738Z,65.10
2019-06-15T07:23:53.548Z,65.70
2019-06-15T07:26:20.982Z,66.60
2019-06-15T07:28:48.485Z,68.10
2019-06-15T07:31:15.929Z,65.70
2019-06-15T07:33:43.443Z,64.60
2019-06-15T07:36:10.972Z,65.70
2019-06-15T07:38:38.620Z,63.80
2019-06-15T07:41:06.130Z,62.70
2019-06-15T07:43:33.586Z,62.70
2019-06-15T07:46:01.177Z,60.70
2019-06-15T07:48:28.691Z,62.00
2019-06-15T07:50:56.374Z,62.50
2019-06-15T07:53:23.922Z,58.60
2019-06-15T07:55:51.478Z,58.30
2019-06-15T07:58:24.573Z,56.30
2019-06-15T08:00:48.265Z,58.00
2019-06-15T08:03:15.716Z,58.70
2019-06-15T08:05:43.244Z,58.10
2019-06-15T08:08:10.762Z,55.70
2019-06-15T08:10:38.302Z,56.10
2019-06-15T08:13:05.977Z,56.10
2019-06-15T08:15:33.431Z,54.00
2019-06-15T08:18:00.904Z,55.70
2019-06-15T08:20:50.966Z,53.10
2019-06-15T08:23:18.426Z,53.40
2019-06-15T08:25:46.141Z,54.20
2019-06-15T08:28:13.599Z,52.20
2019-06-15T08:30:41.855Z,53.20
2019-06-15T08:33:09.998Z,54.20
2019-06-15T08:35:37.638Z,52.30
2019-06-15T08:38:05.188Z,53.20
2019-06-15T08:40:32.678Z,52.80
2019-06-15T08:43:00.113Z,52.60
2019-06-15T08:45:27.615Z,50.30
2019-06-15T08:47:55.115Z,51.10
2019-06-15T08:50:22.667Z,53.70
2019-06-15T08:52:50.168Z,53.20
2019-06-15T08:55:17.783Z,52.00
2019-06-15T08:57:45.529Z,52.30
2019-06-15T09:00:14.465Z,52.30
2019-06-15T09:02:42.052Z,50.30
2019-06-15T09:05:09.598Z,52.00
2019-06-15T09:07:37.059Z,54.00
2019-06-15T09:10:04.932Z,53.10
2019-06-15T09:12:32.386Z,52.60
2019-06-15T09:15:00.100Z,51.90
2019-06-15T09:17:27.680Z,50.70
2019-06-15T09:20:14.682Z,49.70
2019-06-15T09:22:42.212Z,50.00
2019-06-15T09:25:09.762Z,50.00
2019-06-15T09:27:37.324Z,50.80
2019-06-15T09:30:05.097Z,50.30
2019-06-15T09:32:32.777Z,51.40
2019-06-15T09:35:00.413Z,51.00
2019-06-15T09:37:28.060Z,50.00
2019-06-15T09:39:55.590Z,48.40
2019-06-15T09:42:23.082Z,48.40
2019-06-15T09:44:50.653Z,48.10
2019-06-15T09:47:18.215Z,48.50
2019-06-15T09:49:45.872Z,47.00
2019-06-15T09:52:13.338Z,48.20
2019-06-15T09:54:40.888Z,48.80
2019-06-15T09:57:08.383Z,47.00
2019-06-15T09:59:38.361Z,47.90
2019-06-15T10:02:05.398Z,48.20
2019-06-15T10:04:32.991Z,47.60
2019-06-15T10:07:00.455Z,47.00
2019-06-15T10:09:28.024Z,46.50
2019-06-15T10:11:55.491Z,46.80
2019-06-15T10:14:23.019Z,46.70
2019-06-15T10:16:50.789Z,45.50
2019-06-15T10:19:18.360Z,44.70
2019-06-15T10:21:45.982Z,44.60
2019-06-15T10:24:14.730Z,44.10
2019-06-15T10:26:42.328Z,42.10
2019-06-15T10:29:09.927Z,45.00
2019-06-15T10:31:37.474Z,43.50
2019-06-15T10:34:06.110Z,44.40
2019-06-15T10:36:33.691Z,43.30
2019-06-15T10:39:01.345Z,44.00
2019-06-15T10:41:30.729Z,43.50
2019-06-15T10:43:58.240Z,42.00
2019-06-15T10:46:25.877Z,43.20
2019-06-15T10:48:55.637Z,42.60
2019-06-15T10:51:22.792Z,42.00
2019-06-15T10:53:50.329Z,42.90
2019-06-15T10:56:18.095Z,41.70
2019-06-15T10:58:45.754Z,42.10
2019-06-15T11:01:13.342Z,42.40
2019-06-15T11:03:40.882Z,42.90
2019-06-15T11:06:08.511Z,43.80
2019-06-15T11:08:36.093Z,44.40
2019-06-15T11:11:21.869Z,43.80
2019-06-15T11:19:44.266Z,41.70
2019-06-15T11:22:18.682Z,41.10
2019-06-15T11:24:46.391Z,41.80
2019-06-15T11:27:16.701Z,42.10
2019-06-15T11:29:44.564Z,44.30
2019-06-15T11:32:12.231Z,41.70
2019-06-15T11:34:39.729Z,42.70
2019-06-15T11:37:07.326Z,41.80
2019-06-15T11:39:34.971Z,42.10
2019-06-15T11:42:02.582Z,42.10
2019-06-15T11:44:30.109Z,42.70
2019-06-15T11:46:57.650Z,42.60
2019-06-15T11:49:26.375Z,42.00
2019-06-15T11:51:54.901Z,42.40
2019-06-15T11:54:22.520Z,42.70
2019-06-15T11:56:50.107Z,40.30
2019-06-15T11:59:17.656Z,38.60
2019-06-15T12:01:45.193Z,39.70
2019-06-15T12:04:12.869Z,41.20
2019-06-15T12:06:40.509Z,40.90
2019-06-15T12:09:08.561Z,40.50
2019-06-15T12:11:36.369Z,41.70
2019-06-15T12:14:04.565Z,41.10
2019-06-15T12:16:32.394Z,40.00
2019-06-15T12:18:59.954Z,39.70
2019-06-15T12:21:27.507Z,39.80
2019-06-15T12:23:55.097Z,38.00
2019-06-15T12:26:22.727Z,40.10
2019-06-15T12:28:50.305Z,38.20
2019-06-15T12:31:17.842Z,39.70
2019-06-15T12:33:45.471Z,39.20
2019-06-15T12:36:19.193Z,39.80
2019-06-15T12:38:42.465Z,39.40
2019-06-15T12:41:10.087Z,39.70
2019-06-15T12:43:37.705Z,37.40
2019-06-15T12:46:05.182Z,40.50
2019-06-15T12:48:32.823Z,40.90
2019-06-15T12:51:00.502Z,39.80
2019-06-15T12:53:28.214Z,40.10
2019-06-15T12:55:55.745Z,40.50
2019-06-15T12:58:23.809Z,40.90
2019-06-15T13:01:04.077Z,42.10
2019-06-15T13:03:31.712Z,40.60
2019-06-15T13:05:59.363Z,42.70
2019-06-15T13:08:27.475Z,39.50
2019-06-15T13:10:56.310Z,36.80
2019-06-15T13:13:23.902Z,38.80
2019-06-15T13:15:51.806Z,38.20
2019-06-15T13:18:19.446Z,39.10
2019-06-15T13:20:47.085Z,38.80
2019-06-15T13:23:14.720Z,40.10
2019-06-15T13:25:42.398Z,39.40
2019-06-15T13:28:11.093Z,38.60
2019-06-15T13:30:38.871Z,40.30
2019-06-15T13:33:06.451Z,39.10
2019-06-15T13:35:34.392Z,40.10
2019-06-15T13:38:02.074Z,40.90
2019-06-15T13:40:30.007Z,42.00
2019-06-15T13:42:57.559Z,40.90
2019-06-15T13:45:25.622Z,40.00
2019-06-15T13:47:53.342Z,40.60
2019-06-15T13:50:20.880Z,41.10
2019-06-15T13:52:48.551Z,39.50
2019-06-15T13:55:21.871Z,40.10
2019-06-15T13:57:48.906Z,39.80
2019-06-15T14:00:16.581Z,40.30
2019-06-15T14:02:44.108Z,38.90
2019-06-15T14:05:11.654Z,38.90
2019-06-15T14:07:39.162Z,42.30
2019-06-15T14:10:07.019Z,41.50
2019-06-15T14:12:34.731Z,39.50
2019-06-15T14:15:02.314Z,40.10
2019-06-15T14:17:29.960Z,40.30
2019-06-15T14:19:57.496Z,39.70
2019-06-15T14:22:25.068Z,38.60
2019-06-15T14:24:52.557Z,39.40
2019-06-15T14:27:20.067Z,40.90
2019-06-15T14:29:47.550Z,39.50
2019-06-15T14:32:15.084Z,39.80
2019-06-15T14:34:42.554Z,38.50
2019-06-15T14:37:10.084Z,39.40
2019-06-15T14:39:37.595Z,38.60
2019-06-15T14:42:05.531Z,40.50
2019-06-15T14:44:33.051Z,42.00
2019-06-15T14:47:00.702Z,40.30
2019-06-15T14:49:28.315Z,40.60
2019-06-15T14:51:55.929Z,40.10
2019-06-15T14:54:23.478Z,41.10
2019-06-15T14:56:51.043Z,39.80
2019-06-15T14:59:19.700Z,42.60
2019-06-15T15:01:47.357Z,44.00
2019-06-15T15:04:16.962Z,44.40
2019-06-15T15:06:47.046Z,41.20
2019-06-15T15:09:14.040Z,44.00
2019-06-15T15:11:41.590Z,41.40
2019-06-15T15:14:09.107Z,44.40
2019-06-15T15:16:36.588Z,40.00
2019-06-15T15:19:06.124Z,41.40
2019-06-15T15:21:33.818Z,41.40
2019-06-15T15:24:01.362Z,40.80
2019-06-15T15:26:29.208Z,43.80
2019-06-15T15:28:56.869Z,41.10
2019-06-15T15:31:27.094Z,41.80
2019-06-15T15:33:55.990Z,41.40
2019-06-15T15:36:26.126Z,41.40
2019-06-15T15:38:52.916Z,41.50
2019-06-15T15:41:20.518Z,42.40
2019-06-15T15:43:48.091Z,43.30
2019-06-15T15:46:16.491Z,42.40
2019-06-15T15:48:46.698Z,41.70
2019-06-15T15:51:16.993Z,41.50
2019-06-15T15:53:46.494Z,42.00
2019-06-15T15:56:13.573Z,44.10
2019-06-15T15:58:41.159Z,43.00
2019-06-15T16:01:08.783Z,43.20
2019-06-15T16:03:36.945Z,44.60
2019-06-15T16:06:04.719Z,43.00
2019-06-15T16:08:32.351Z,42.40
2019-06-15T16:10:59.930Z,41.80
2019-06-15T16:13:27.466Z,43.30
2019-06-15T16:15:55.018Z,44.10
2019-06-15T16:18:22.743Z,44.70
2019-06-15T16:20:50.425Z,44.40
2019-06-15T16:23:18.165Z,43.30
2019-06-15T16:25:46.252Z,43.30
2019-06-15T16:28:13.958Z,43.60
2019-06-15T16:31:01.958Z,44.00
2019-06-15T16:33:11.070Z,44.10
2019-06-15T16:35:38.735Z,44.90
2019-06-15T16:38:08.544Z,44.40
2019-06-15T16:40:38.213Z,44.10
2019-06-15T16:43:07.112Z,44.90
2019-06-15T16:45:35.139Z,45.00
2019-06-15T16:48:06.208Z,44.60
2019-06-15T16:50:36.313Z,44.10
2019-06-15T16:53:02.959Z,45.60
2019-06-15T16:55:30.500Z,45.60
2019-06-15T16:57:58.183Z,45.50
2019-06-15T17:00:27.617Z,46.10
2019-06-15T17:02:57.229Z,47.60
2019-06-15T17:05:27.167Z,47.20
2019-06-15T17:07:56.513Z,46.70
2019-06-15T17:10:32.719Z,47.30
2019-06-15T17:13:00.183Z,47.90
2019-06-15T17:15:27.720Z,47.80
2019-06-15T17:17:56.338Z,47.90
2019-06-15T17:20:28.125Z,47.30
2019-06-15T17:22:56.367Z,47.90
2019-06-15T17:25:23.995Z,47.90
2019-06-15T17:27:51.785Z,48.10
2019-06-15T17:30:19.358Z,46.50
2019-06-15T17:32:46.885Z,47.50
2019-06-15T17:35:16.759Z,47.60
2019-06-15T17:37:43.868Z,47.20
2019-06-15T17:40:11.709Z,48.10
2019-06-15T17:42:39.276Z,48.80
2019-06-15T17:45:06.843Z,48.40
2019-06-15T17:47:34.416Z,47.90
2019-06-15T17:50:01.893Z,47.80
2019-06-15T17:52:29.566Z,48.20
2019-06-15T17:54:57.160Z,47.80
2019-06-15T17:57:25.379Z,48.40
2019-06-15T17:59:54.250Z,47.90
2019-06-15T18:02:22.032Z,47.90
2019-06-15T18:04:49.547Z,48.50
2019-06-15T18:07:17.143Z,49.60
2019-06-15T18:09:46.554Z,49.30
2019-06-15T18:12:16.249Z,50.00
2019-06-15T18:14:46.207Z,50.80
2019-06-15T18:17:13.036Z,50.80
2019-06-15T18:19:40.665Z,50.80
2019-06-15T18:22:08.275Z,52.00
2019-06-15T18:24:37.246Z,52.80
2019-06-15T18:27:07.069Z,52.50
2019-06-15T18:29:36.696Z,51.90
2019-06-15T18:32:06.434Z,52.60
2019-06-15T18:34:36.810Z,53.50
2019-06-15T18:37:04.846Z,53.90
2019-06-15T18:39:33.843Z,54.30
2019-06-15T18:42:01.872Z,54.80
2019-06-15T18:44:29.909Z,55.80
2019-06-15T18:46:57.880Z,56.10
2019-06-15T18:49:26.826Z,56.40
2019-06-15T18:51:56.761Z,57.00
2019-06-15T18:54:26.559Z,57.40
2019-06-15T18:56:56.485Z,58.10
2019-06-15T18:59:25.960Z,58.60
2019-06-15T19:01:56.247Z,59.00
2019-06-15T19:04:30.092Z,58.70
2019-06-15T19:06:55.957Z,58.90
2019-06-15T19:09:22.924Z,60.50
2019-06-15T19:11:50.424Z,61.20
2019-06-15T19:14:17.963Z,61.20
2019-06-15T19:16:47.154Z,61.20
2019-06-15T19:19:17.081Z,62.50
2019-06-15T19:21:46.186Z,64.20
2019-06-15T19:24:16.568Z,65.30
2019-06-15T19:26:46.008Z,65.90
2019-06-15T19:29:13.844Z,67.60
2019-06-15T19:31:41.447Z,67.40
2019-06-15T19:34:09.249Z,67.20
2019-06-15T19:36:36.881Z,66.40
2019-06-15T19:39:06.277Z,67.00
2019-06-15T19:41:37.930Z,67.00
2019-06-15T19:44:05.983Z,67.40
2019-06-15T19:46:36.405Z,68.10
2019-06-15T19:49:03.178Z,69.80
2019-06-15T19:51:30.739Z,71.30
2019-06-15T19:53:58.277Z,72.80
2019-06-15T19:56:26.156Z,73.50
2019-06-15T19:58:56.368Z,73.30
2019-06-15T20:01:23.225Z,74.10
2019-06-15T20:03:52.612Z,74.10
2019-06-15T20:06:20.111Z,73.90
2019-06-15T20:08:47.627Z,73.90
2019-06-15T20:11:15.164Z,74.10
2019-06-15T20:13:42.799Z,74.60
2019-06-15T20:16:10.318Z,75.00
2019-06-15T20:18:37.812Z,75.60
2019-06-15T20:21:07.288Z,76.30
2019-06-15T20:23:37.236Z,76.10
2019-06-15T20:26:06.421Z,76.30
2019-06-15T20:28:33.864Z,76.50
2019-06-15T20:31:01.443Z,77.30
2019-06-15T20:33:29.044Z,77.60
2019-06-15T20:35:57.611Z,77.30
2019-06-15T20:38:26.940Z,77.30
2019-06-15T20:40:59.136Z,78.20
2019-06-15T20:43:29.017Z,78.70
2019-06-15T20:45:56.535Z,78.70
2019-06-15T20:48:26.627Z,79.10
2019-06-15T20:50:53.471Z,78.90
2019-06-15T20:53:21.075Z,79.70
2019-06-15T20:55:48.591Z,79.70
2019-06-15T20:58:16.976Z,80.20
2019-06-15T21:00:47.532Z,80.40
2019-06-15T21:03:16.175Z,80.60
2019-06-15T21:05:44.078Z,80.80
2019-06-15T21:08:12.835Z,81.00
2019-06-15T21:10:40.433Z,80.80
2019-06-15T21:13:08.138Z,80.80
2019-06-15T21:15:39.250Z,81.20
2019-06-15T21:18:06.946Z,80.40
2019-06-15T21:20:36.394Z,80.60
2019-06-15T21:23:06.410Z,79.70
2019-06-15T21:25:33.402Z,79.70
2019-06-15T21:28:00.978Z,79.30
2019-06-15T21:30:28.554Z,78.20
2019-06-15T21:32:56.225Z,77.60
2019-06-15T21:35:23.801Z,76.10
2019-06-15T21:37:52.001Z,75.00
2019-06-15T21:40:19.558Z,74.50
2019-06-15T21:42:47.633Z,74.60
2019-06-15T21:45:15.264Z,74.50
2019-06-15T21:47:46.281Z,74.30
2019-06-15T21:50:15.968Z,74.10
2019-06-15T21:52:45.824Z,73.70
2019-06-15T21:55:12.827Z,74.30
2019-06-15T21:57:40.336Z,73.50
2019-06-15T22:00:11.691Z,75.60
2019-06-15T22:02:41.162Z,75.80
2019-06-15T22:05:09.449Z,79.30
2019-06-15T22:07:37.396Z,81.50
2019-06-15T22:10:06.503Z,84.00
2019-06-15T22:12:36.366Z,83.20
2019-06-15T22:15:06.757Z,86.20
2019-06-15T22:17:36.946Z,87.70
2019-06-15T22:20:06.234Z,88.10
2019-06-15T22:22:36.261Z,86.80
2019-06-15T22:25:03.397Z,87.50
2019-06-15T22:27:31.122Z,88.20
2019-06-15T22:29:58.750Z,89.70
2019-06-15T22:32:27.049Z,90.50
2019-06-15T22:34:56.325Z,90.70
2019-06-15T22:37:26.239Z,90.60
2019-06-15T22:39:56.098Z,88.60
2019-06-15T22:42:22.832Z,89.60
2019-06-15T22:44:50.696Z,90.20
2019-06-15T22:47:18.232Z,90.70
2019-06-15T22:49:46.916Z,91.90
2019-06-15T22:52:16.982Z,92.40
2019-06-15T22:54:46.372Z,93.00
2019-06-15T22:57:13.575Z,93.30
2019-06-15T22:59:41.148Z,94.00
2019-06-15T23:02:08.723Z,94.50
2019-06-15T23:04:37.152Z,94.80
2019-06-15T23:07:06.922Z,94.40
2019-06-15T23:09:36.045Z,94.60
2019-06-15T23:12:03.781Z,94.50
2019-06-15T23:14:31.260Z,94.60
2019-06-15T23:16:58.925Z,94.60
2019-06-15T23:19:26.453Z,94.70
2019-06-15T23:21:54.012Z,94.30
2019-06-15T23:24:21.483Z,94.70
2019-06-15T23:26:49.057Z,95.40
2019-06-15T23:29:16.646Z,95.50
2019-06-15T23:31:46.084Z,95.60
2019-06-15T23:34:16.136Z,95.60
2019-06-15T23:36:54.151Z,96.00
2019-06-15T23:39:16.486Z,95.50
2019-06-15T23:41:44.124Z,95.40
2019-06-15T23:44:11.664Z,95.00
2019-06-15T23:46:40.071Z,95.80
2019-06-15T23:49:07.640Z,96.30
2019-06-15T23:51:37.024Z,96.20
2019-06-15T23:54:04.595Z,96.30
2019-06-15T23:56:32.067Z,96.20
2019-06-15T23:58:59.588Z,96.30
